createdAt,value
2022-10-29T00:00:53.684Z,96152.00
2022-10-29T00:03:21.104Z,96153.03
2022-10-29T00:05:54.982Z,96149.13
2022-10-29T00:08:21.699Z,96144.44
2022-10-29T00:10:48.490Z,96145.50
2022-10-29T00:13:15.325Z,96146.16
2022-10-29T00:15:42.430Z,96147.41
2022-10-29T00:18:09.087Z,96137.16
2022-10-29T00:20:35.792Z,96141.88
2022-10-29T00:23:02.876Z,96137.38
2022-10-29T00:25:29.589Z,96136.53
2022-10-29T00:27:56.716Z,96139.69
2022-10-29T00:30:23.758Z,96136.19
2022-10-29T00:32:50.449Z,96131.06
2022-10-29T00:35:17.244Z,96130.09
2022-10-29T00:37:44.295Z,96130.53
2022-10-29T00:40:11.298Z,96127.84
2022-10-29T00:42:38.638Z,96126.06
2022-10-29T00:45:05.717Z,96128.38
2022-10-29T00:47:36.091Z,96124.28
2022-10-29T00:50:04.837Z,96127.97
2022-10-29T00:52:32.923Z,96124.47
2022-10-29T00:55:02.612Z,96120.44
2022-10-29T00:57:41.194Z,96124.72
2022-10-29T01:00:08.269Z,96123.09
2022-10-29T01:02:35.778Z,96123.31
2022-10-29T01:05:03.940Z,96120.84
2022-10-29T01:07:30.835Z,96119.22
2022-10-29T01:09:57.980Z,96118.63
2022-10-29T01:12:43.765Z,96112.84
2022-10-29T01:15:19.754Z,96110.81
2022-10-29T01:18:05.482Z,96103.94
2022-10-29T01:20:35.232Z,96095.75
2022-10-29T01:23:20.376Z,96098.25
2022-10-29T01:25:50.289Z,96100.34
2022-10-29T01:28:35.629Z,96096.63
2022-10-29T01:31:05.444Z,96087.00
2022-10-29T01:34:01.714Z,96089.41
2022-10-29T01:36:28.406Z,96092.91
2022-10-29T01:39:12.822Z,96096.25
2022-10-29T01:41:39.501Z,96102.84
2022-10-29T01:44:06.135Z,96096.91
2022-10-29T01:46:40.813Z,96096.72
2022-10-29T01:49:11.086Z,96090.81
2022-10-29T01:51:38.254Z,96089.16
2022-10-29T01:54:10.158Z,96088.19
2022-10-29T01:56:37.347Z,96078.75
2022-10-29T01:59:06.876Z,96090.03
2022-10-29T02:01:38.186Z,96091.94
2022-10-29T02:04:14.151Z,96086.81
2022-10-29T02:06:40.957Z,96089.88
2022-10-29T02:09:21.977Z,96088.66
2022-10-29T02:11:59.243Z,96079.47
2022-10-29T02:14:30.052Z,96083.97
2022-10-29T02:16:56.970Z,96083.16
2022-10-29T02:19:23.930Z,96081.72
2022-10-29T02:21:50.849Z,96074.75
2022-10-29T02:24:17.690Z,96081.59
2022-10-29T02:26:44.489Z,96082.41
2022-10-29T02:29:11.188Z,96084.69
2022-10-29T02:31:37.962Z,96094.50
2022-10-29T02:34:04.728Z,96086.50
2022-10-29T02:36:31.621Z,96072.97
2022-10-29T02:38:58.400Z,96072.41
2022-10-29T02:41:25.205Z,96069.13
2022-10-29T02:43:51.886Z,96069.72
2022-10-29T02:46:20.423Z,96072.44
2022-10-29T02:48:47.530Z,96069.97
2022-10-29T02:51:14.778Z,96075.09
2022-10-29T02:53:41.794Z,96070.78
2022-10-29T02:56:08.930Z,96072.25
2022-10-29T02:58:35.720Z,96076.19
2022-10-29T03:01:02.964Z,96072.91
2022-10-29T03:03:29.711Z,96074.16
2022-10-29T03:05:56.648Z,96070.28
2022-10-29T03:08:23.693Z,96070.69
2022-10-29T03:10:50.489Z,96075.00
2022-10-29T03:13:18.049Z,96074.63
2022-10-29T03:15:48.456Z,96071.34
2022-10-29T03:18:15.349Z,96068.28
2022-10-29T03:20:42.832Z,96070.56
2022-10-29T03:23:09.575Z,96064.03
2022-10-29T03:25:36.382Z,96057.06
2022-10-29T03:28:04.990Z,96068.38
2022-10-29T03:30:31.925Z,96068.16
2022-10-29T03:32:58.967Z,96065.91
2022-10-29T03:35:26.076Z,96064.06
2022-10-29T03:37:53.087Z,96066.13
2022-10-29T03:40:19.827Z,96053.00
2022-10-29T03:42:46.493Z,96057.16
2022-10-29T03:45:13.316Z,96060.22
2022-10-29T03:47:40.031Z,96047.72
2022-10-29T03:50:07.406Z,96054.09
2022-10-29T03:52:34.169Z,96056.13
2022-10-29T03:55:00.959Z,96061.25
2022-10-29T03:57:27.965Z,96057.97
2022-10-29T03:59:54.690Z,96054.72
2022-10-29T04:02:21.682Z,96061.06
2022-10-29T04:04:48.643Z,96064.59
2022-10-29T04:07:15.611Z,96054.09
2022-10-29T04:09:42.308Z,96066.84
2022-10-29T04:12:09.294Z,96062.31
2022-10-29T04:14:38.094Z,96057.63
2022-10-29T04:17:08.720Z,96062.97
2022-10-29T04:19:35.422Z,96067.28
2022-10-29T04:27:08.090Z,96064.81
2022-10-29T04:30:24.023Z,96073.66
2022-10-29T04:32:50.801Z,96079.81
2022-10-29T04:35:17.621Z,96081.47
2022-10-29T04:37:44.490Z,96080.63
2022-10-29T04:40:11.441Z,96076.34
2022-10-29T04:42:38.725Z,96075.97
2022-10-29T04:45:06.247Z,96079.66
2022-10-29T04:47:33.467Z,96084.75
2022-10-29T04:50:00.192Z,96083.53
2022-10-29T04:52:27.659Z,96084.56
2022-10-29T04:54:54.316Z,96082.31
2022-10-29T04:57:21.057Z,96081.91
2022-10-29T04:59:48.006Z,96078.84
2022-10-29T05:02:14.745Z,96072.91
2022-10-29T05:04:41.583Z,96070.25
2022-10-29T05:07:08.679Z,96067.78
2022-10-29T05:09:35.537Z,96074.75
2022-10-29T05:12:02.271Z,96078.44
2022-10-29T05:14:29.278Z,96082.34
2022-10-29T05:16:56.000Z,96078.63
2022-10-29T05:19:22.980Z,96086.88
2022-10-29T05:21:49.920Z,96082.34
2022-10-29T05:24:16.800Z,96083.97
2022-10-29T05:26:43.956Z,96085.41
2022-10-29T05:29:10.769Z,96090.94
2022-10-29T05:31:37.458Z,96083.97
2022-10-29T05:34:04.354Z,96086.41
2022-10-29T05:36:31.306Z,96087.25
2022-10-29T05:38:58.250Z,96088.88
2022-10-29T05:41:24.936Z,96089.69
2022-10-29T05:43:53.004Z,96097.47
2022-10-29T05:46:19.804Z,96094.63
2022-10-29T05:48:46.990Z,96103.41
2022-10-29T05:51:13.846Z,96099.53
2022-10-29T05:53:40.572Z,96097.88
2022-10-29T05:56:07.776Z,96100.97
2022-10-29T05:58:34.627Z,96104.22
2022-10-29T06:01:05.648Z,96098.88
2022-10-29T06:03:32.436Z,96104.00
2022-10-29T06:05:59.399Z,96112.19
2022-10-29T06:08:26.182Z,96109.38
2022-10-29T06:10:52.983Z,96115.91
2022-10-29T06:13:20.585Z,96118.75
2022-10-29T06:15:48.323Z,96112.59
2022-10-29T06:18:15.377Z,96115.88
2022-10-29T06:20:43.788Z,96117.47
2022-10-29T06:23:11.242Z,96116.47
2022-10-29T06:25:38.137Z,96124.06
2022-10-29T06:28:06.034Z,96124.06
2022-10-29T06:30:33.401Z,96116.69
2022-10-29T06:33:00.375Z,96113.41
2022-10-29T06:35:27.270Z,96109.72
2022-10-29T06:37:55.762Z,96113.22
2022-10-29T06:40:23.127Z,96110.09
2022-10-29T06:42:49.884Z,96105.78
2022-10-29T06:45:16.837Z,96111.13
2022-10-29T06:47:44.740Z,96110.31
2022-10-29T06:50:13.177Z,96112.56
2022-10-29T06:52:40.024Z,96115.22
2022-10-29T06:55:07.663Z,96113.34
2022-10-29T06:57:34.451Z,96112.31
2022-10-29T07:00:05.663Z,96108.81
2022-10-29T07:02:35.210Z,96111.63
2022-10-29T07:05:02.076Z,96112.03
2022-10-29T07:07:29.822Z,96120.22
2022-10-29T07:09:58.200Z,96118.53
2022-10-29T07:12:25.226Z,96118.53
2022-10-29T07:14:52.149Z,96119.34
2022-10-29T07:17:18.873Z,96122.63
2022-10-29T07:19:45.833Z,96120.94
2022-10-29T07:22:12.589Z,96128.72
2022-10-29T07:24:39.428Z,96124.13
2022-10-29T07:27:07.475Z,96121.44
2022-10-29T07:29:35.345Z,96126.94
2022-10-29T07:32:02.294Z,96128.34
2022-10-29T07:34:29.016Z,96117.09
2022-10-29T07:36:55.714Z,96131.59
2022-10-29T07:39:22.810Z,96130.16
2022-10-29T07:41:49.661Z,96122.75
2022-10-29T07:44:16.373Z,96114.13
2022-10-29T07:46:43.088Z,96124.78
2022-10-29T07:49:09.828Z,96109.94
2022-10-29T07:51:36.569Z,96107.63
2022-10-29T07:54:03.452Z,96109.63
2022-10-29T07:56:30.251Z,96114.50
2022-10-29T07:58:56.969Z,96107.06
2022-10-29T08:01:23.780Z,96106.22
2022-10-29T08:03:51.300Z,96102.88
2022-10-29T08:06:18.132Z,96106.94
2022-10-29T08:08:44.951Z,96099.50
2022-10-29T08:11:11.644Z,96101.88
2022-10-29T08:13:38.616Z,96091.34
2022-10-29T08:16:05.557Z,96092.91
2022-10-29T08:18:32.469Z,96086.91
2022-10-29T08:20:59.341Z,96083.56
2022-10-29T08:23:26.130Z,96082.66
2022-10-29T08:25:52.784Z,96086.31
2022-10-29T08:28:21.817Z,96080.28
2022-10-29T08:30:51.073Z,96091.94
2022-10-29T08:33:18.213Z,96087.09
2022-10-29T08:35:44.934Z,96083.09
2022-10-29T08:38:11.799Z,96079.72
2022-10-29T08:41:06.700Z,96085.00
2022-10-29T08:43:36.585Z,96069.53
2022-10-29T08:46:03.842Z,96068.63
2022-10-29T08:48:33.748Z,96062.63
2022-10-29T08:51:03.359Z,96062.50
2022-10-29T08:53:39.543Z,96061.94
2022-10-29T08:56:10.956Z,96059.66
2022-10-29T08:58:44.039Z,96063.03
2022-10-29T09:01:12.105Z,96052.94
2022-10-29T09:03:39.055Z,96049.31
2022-10-29T09:06:24.249Z,96054.81
2022-10-29T09:09:10.892Z,96051.91
2022-10-29T09:11:37.667Z,96052.13
2022-10-29T09:14:07.505Z,96048.97
2022-10-29T09:16:43.326Z,96049.22
2022-10-29T09:19:22.739Z,96047.00
2022-10-29T09:22:00.123Z,96036.72
2022-10-29T09:24:42.306Z,96036.59
2022-10-29T09:27:16.173Z,96038.97
2022-10-29T09:29:55.557Z,96039.03
2022-10-29T09:32:31.459Z,96041.59
2022-10-29T09:35:02.093Z,96034.81
2022-10-29T09:37:35.352Z,96030.50
2022-10-29T09:40:04.894Z,96019.38
2022-10-29T09:42:35.575Z,96030.06
2022-10-29T09:45:04.560Z,96016.75
2022-10-29T09:47:37.641Z,96009.09
2022-10-29T09:50:14.273Z,96007.66
2022-10-29T09:52:42.513Z,96007.28
2022-10-29T09:55:15.497Z,96005.00
2022-10-29T09:57:42.330Z,95998.09
2022-10-29T10:00:20.457Z,95992.50
2022-10-29T10:02:55.143Z,95988.00
2022-10-29T10:05:27.290Z,95986.56
2022-10-29T10:08:13.713Z,95981.81
2022-10-29T10:10:52.054Z,95973.16
2022-10-29T10:13:21.792Z,95974.09
2022-10-29T10:15:55.171Z,95966.19
2022-10-29T10:18:23.738Z,95956.81
2022-10-29T10:21:10.762Z,95956.06
2022-10-29T10:23:45.271Z,95948.56
2022-10-29T10:26:31.074Z,95947.50
2022-10-29T10:29:17.900Z,95943.78
2022-10-29T10:31:49.062Z,95929.91
2022-10-29T10:34:17.591Z,95929.78
2022-10-29T10:36:52.030Z,95926.09
2022-10-29T10:39:38.008Z,95920.84
2022-10-29T10:42:25.856Z,95917.38
2022-10-29T10:45:03.751Z,95910.44
2022-10-29T10:47:35.601Z,95913.25
2022-10-29T10:50:11.647Z,95908.50
2022-10-29T10:52:39.054Z,95897.50
2022-10-29T10:55:16.484Z,95901.34
2022-10-29T10:57:50.115Z,95900.63
2022-10-29T11:00:21.772Z,95882.19
2022-10-29T11:03:11.913Z,95880.88
2022-10-29T11:05:53.433Z,95881.94
2022-10-29T11:08:43.128Z,95883.81
2022-10-29T11:11:20.414Z,95866.06
2022-10-29T11:13:49.101Z,95869.03
2022-10-29T11:16:15.813Z,95867.75
2022-10-29T11:18:52.456Z,95862.66
2022-10-29T11:21:28.899Z,95860.28
2022-10-29T11:23:58.780Z,95849.25
2022-10-29T11:26:29.618Z,95853.84
2022-10-29T11:28:59.890Z,95848.72
2022-10-29T11:31:36.439Z,95842.81
2022-10-29T11:34:08.296Z,95836.13
2022-10-29T11:36:39.699Z,95836.16
2022-10-29T11:39:13.840Z,95834.84
2022-10-29T11:41:47.116Z,95835.72
2022-10-29T11:44:15.142Z,95827.13
2022-10-29T11:46:57.310Z,95819.09
2022-10-29T11:49:36.245Z,95820.75
2022-10-29T11:52:11.412Z,95819.72
2022-10-29T11:54:38.567Z,95812.72
2022-10-29T11:57:08.633Z,95818.97
2022-10-29T11:59:35.341Z,95804.44
2022-10-29T12:02:20.961Z,95810.91
2022-10-29T12:04:53.344Z,95803.38
2022-10-29T12:07:22.925Z,95805.28
2022-10-29T12:10:00.439Z,95796.38
2022-10-29T12:12:46.318Z,95799.63
2022-10-29T12:15:15.768Z,95792.63
2022-10-29T12:17:50.732Z,95788.06
2022-10-29T12:20:17.445Z,95775.66
2022-10-29T12:23:02.560Z,95778.34
2022-10-29T12:25:32.825Z,95773.00
2022-10-29T12:27:59.578Z,95774.91
2022-10-29T12:30:27.454Z,95770.31
2022-10-29T12:33:00.579Z,95768.16
2022-10-29T12:35:33.838Z,95760.88
2022-10-29T12:38:19.472Z,95766.84
2022-10-29T12:40:48.590Z,95761.72
2022-10-29T12:43:41.881Z,95761.72
2022-10-29T12:46:21.535Z,95755.25
2022-10-29T12:48:54.597Z,95760.09
2022-10-29T12:51:51.147Z,95756.59
2022-10-29T12:54:27.042Z,95749.84
2022-10-29T12:56:56.673Z,95756.34
2022-10-29T12:59:23.457Z,95744.47
2022-10-29T13:02:10.416Z,95745.81
2022-10-29T13:04:37.567Z,95747.16
2022-10-29T13:07:06.142Z,95735.00
2022-10-29T13:09:37.182Z,95729.88
2022-10-29T13:12:05.148Z,95740.13
2022-10-29T13:14:31.991Z,95736.34
2022-10-29T13:16:59.340Z,95721.78
2022-10-29T13:19:44.549Z,95715.03
2022-10-29T13:22:17.302Z,95717.19
2022-10-29T13:24:44.331Z,95723.13
2022-10-29T13:27:17.021Z,95724.50
2022-10-29T13:29:48.376Z,95712.88
2022-10-29T13:32:30.434Z,95715.31
2022-10-29T13:34:58.978Z,95717.75
2022-10-29T13:37:39.125Z,95719.91
2022-10-29T13:40:24.933Z,95715.31
2022-10-29T13:43:01.466Z,95718.00
2022-10-29T13:45:30.248Z,95712.63
2022-10-29T13:48:02.508Z,95706.94
2022-10-29T13:50:29.548Z,95707.50
2022-10-29T13:52:58.718Z,95700.75
2022-10-29T13:55:27.695Z,95709.09
2022-10-29T13:57:54.642Z,95703.97
2022-10-29T14:00:22.100Z,95697.78
2022-10-29T14:02:54.918Z,95703.16
2022-10-29T14:05:23.975Z,95703.97
2022-10-29T14:07:56.212Z,95697.50
2022-10-29T14:10:24.826Z,95693.19
2022-10-29T14:12:55.241Z,95692.38
2022-10-29T14:15:22.452Z,95691.28
2022-10-29T14:17:49.200Z,95693.19
2022-10-29T14:20:20.101Z,95693.19
2022-10-29T14:22:46.955Z,95691.28
2022-10-29T14:25:49.326Z,95687.78
2022-10-29T14:28:31.661Z,95692.38
2022-10-29T14:31:12.233Z,95682.66
2022-10-29T14:33:40.498Z,95681.03
2022-10-29T14:36:07.322Z,95686.69
2022-10-29T14:38:46.394Z,95686.97
2022-10-29T14:41:14.922Z,95690.75
2022-10-29T14:43:42.242Z,95694.53
2022-10-29T14:46:10.850Z,95699.13
2022-10-29T14:48:38.971Z,95692.91
2022-10-29T14:51:05.734Z,95689.13
2022-10-29T14:53:38.769Z,95692.63
2022-10-29T14:56:09.835Z,95691.84
2022-10-29T14:58:38.111Z,95692.66
2022-10-29T15:01:09.398Z,95693.44
2022-10-29T15:03:36.297Z,95685.38
2022-10-29T15:06:12.540Z,95691.31
2022-10-29T15:08:40.652Z,95691.84
2022-10-29T15:11:27.506Z,95694.56
2022-10-29T15:13:54.352Z,95692.38
2022-10-29T15:16:21.379Z,95691.31
2022-10-29T15:18:49.346Z,95693.72
2022-10-29T15:21:32.779Z,95689.97
2022-10-29T15:24:04.242Z,95700.47
2022-10-29T15:26:31.281Z,95703.16
2022-10-29T15:28:58.118Z,95696.41
2022-10-29T15:31:34.032Z,95702.59
2022-10-29T15:34:08.470Z,95709.59
2022-10-29T15:36:48.678Z,95703.66
2022-10-29T15:39:19.057Z,95708.22
2022-10-29T15:41:50.287Z,95717.13
2022-10-29T15:44:37.382Z,95715.44
2022-10-29T15:47:40.030Z,95715.41
2022-10-29T15:50:09.625Z,95713.78
2022-10-29T15:52:41.300Z,95715.38
2022-10-29T15:55:14.696Z,95716.19
2022-10-29T15:57:42.376Z,95722.63
2022-10-29T16:00:11.515Z,95729.59
2022-10-29T16:02:38.324Z,95718.84
2022-10-29T16:05:05.433Z,95727.69
2022-10-29T16:07:32.774Z,95737.34
2022-10-29T16:09:59.885Z,95735.22
2022-10-29T16:12:26.640Z,95733.28
2022-10-29T16:14:53.634Z,95741.06
2022-10-29T16:17:21.108Z,95738.91
2022-10-29T16:19:48.273Z,95737.81
2022-10-29T16:22:26.800Z,95742.91
2022-10-29T16:24:53.968Z,95744.75
2022-10-29T16:27:21.029Z,95752.81
2022-10-29T16:29:49.879Z,95760.59
2022-10-29T16:32:17.561Z,95761.34
2022-10-29T16:34:44.299Z,95768.06
2022-10-29T16:37:12.507Z,95764.28
2022-10-29T16:39:39.765Z,95758.34
2022-10-29T16:42:06.907Z,95765.03
2022-10-29T16:44:33.657Z,95765.56
2022-10-29T16:47:00.693Z,95766.09
2022-10-29T16:49:27.399Z,95770.31
2022-10-29T16:51:54.251Z,95764.63
2022-10-29T16:54:21.030Z,95766.22
2022-10-29T16:56:48.050Z,95766.75
2022-10-29T16:59:14.751Z,95769.94
2022-10-29T17:01:42.926Z,95772.31
2022-10-29T17:04:09.882Z,95770.69
2022-10-29T17:06:36.666Z,95771.19
2022-10-29T17:09:05.251Z,95773.31
2022-10-29T17:11:32.238Z,95777.31
2022-10-29T17:13:59.214Z,95772.44
2022-10-29T17:16:26.130Z,95780.50
2022-10-29T17:18:52.978Z,95781.28
2022-10-29T17:21:19.685Z,95786.09
2022-10-29T17:23:46.517Z,95783.91
2022-10-29T17:26:13.629Z,95746.22
2022-10-29T17:28:40.525Z,95788.94
2022-10-29T17:31:07.997Z,95786.75
2022-10-29T17:33:34.870Z,95787.00
2022-10-29T17:36:02.711Z,95789.13
2022-10-29T17:38:29.741Z,95788.00
2022-10-29T17:40:56.674Z,95791.22
2022-10-29T17:43:23.609Z,95794.41
2022-10-29T17:45:50.785Z,95790.03
2022-10-29T17:48:20.881Z,95794.31
2022-10-29T17:50:56.240Z,95792.94
2022-10-29T17:53:23.799Z,95795.06
2022-10-29T17:55:50.701Z,95788.56
2022-10-29T17:58:18.230Z,95790.38
2022-10-29T18:00:45.804Z,95795.19
2022-10-29T18:03:12.596Z,95793.56
2022-10-29T18:05:39.380Z,95787.88
2022-10-29T18:08:06.405Z,95804.44
2022-10-29T18:10:33.499Z,95800.13
2022-10-29T18:13:00.429Z,95802.50
2022-10-29T18:15:27.314Z,95807.25
2022-10-29T18:17:54.179Z,95814.75
2022-10-29T18:20:20.998Z,95816.91
2022-10-29T18:22:50.659Z,95820.66
2022-10-29T18:25:18.872Z,95817.38
2022-10-29T18:27:45.606Z,95819.75
2022-10-29T18:30:12.766Z,95818.94
2022-10-29T18:32:39.566Z,95820.25
2022-10-29T18:35:06.687Z,95821.53
2022-10-29T18:37:33.812Z,95812.69
2022-10-29T18:40:00.673Z,95821.25
2022-10-29T18:42:29.939Z,95820.44
2022-10-29T18:44:57.137Z,95816.38
2022-10-29T18:47:23.838Z,95815.56
2022-10-29T18:49:50.601Z,95823.03
2022-10-29T18:52:17.417Z,95818.72
2022-10-29T18:54:44.180Z,95812.78
2022-10-29T18:57:14.126Z,95814.41
2022-10-29T18:59:46.144Z,95806.38
2022-10-29T19:02:12.966Z,95801.81
2022-10-29T19:04:39.902Z,95803.69
2022-10-29T19:07:06.637Z,95799.38
2022-10-29T19:09:33.992Z,95802.06
2022-10-29T19:12:00.663Z,95802.88
2022-10-29T19:14:27.628Z,95798.88
2022-10-29T19:16:54.298Z,95801.00
2022-10-29T19:19:23.816Z,95793.19
2022-10-29T19:21:51.056Z,95796.38
2022-10-29T19:24:17.936Z,95800.38
2022-10-29T19:26:44.630Z,95805.16
2022-10-29T19:29:11.991Z,95806.22
2022-10-29T19:31:39.697Z,95806.47
2022-10-29T19:34:07.752Z,95806.97
2022-10-29T19:36:35.486Z,95814.44
2022-10-29T19:39:03.129Z,95810.63
2022-10-29T19:41:30.808Z,95807.38
2022-10-29T19:44:03.907Z,95806.00
2022-10-29T19:46:31.301Z,95811.03
2022-10-29T19:48:58.480Z,95813.41
2022-10-29T19:51:25.720Z,95818.47
2022-10-29T19:53:52.643Z,95831.63
2022-10-29T19:56:19.934Z,95818.69
2022-10-29T19:58:46.996Z,95818.13
2022-10-29T20:01:19.004Z,95818.59
2022-10-29T20:03:46.541Z,95822.34
2022-10-29T20:06:14.058Z,95821.22
2022-10-29T20:08:40.798Z,95826.03
2022-10-29T20:11:07.883Z,95827.06
2022-10-29T20:13:35.162Z,95821.38
2022-10-29T20:16:07.903Z,95832.59
2022-10-29T20:18:35.667Z,95829.50
2022-10-29T20:21:02.562Z,95835.09
2022-10-29T20:23:29.554Z,95833.72
2022-10-29T20:25:56.505Z,95841.19
2022-10-29T20:28:23.883Z,95834.94
2022-10-29T20:31:09.324Z,95844.03
2022-10-29T20:33:36.052Z,95838.34
2022-10-29T20:36:02.862Z,95841.00
2022-10-29T20:38:29.701Z,95847.13
2022-10-29T20:40:56.399Z,95841.41
2022-10-29T20:43:23.421Z,95843.28
2022-10-29T20:45:51.555Z,95844.34
2022-10-29T20:48:18.245Z,95843.38
2022-10-29T20:50:50.779Z,95840.06
2022-10-29T20:53:17.605Z,95846.94
2022-10-29T20:55:44.385Z,95848.22
2022-10-29T20:58:11.559Z,95842.31
2022-10-29T21:00:38.530Z,95845.00
2022-10-29T21:03:05.377Z,95852.13
2022-10-29T21:05:32.337Z,95847.09
2022-10-29T21:07:59.567Z,95856.66
2022-10-29T21:10:26.878Z,95854.22
2022-10-29T21:12:54.183Z,95847.22
2022-10-29T21:15:21.059Z,95841.78
2022-10-29T21:17:47.891Z,95842.25
2022-10-29T21:20:14.718Z,95841.69
2022-10-29T21:22:41.579Z,95837.59
2022-10-29T21:25:08.489Z,95847.97
2022-10-29T21:27:35.434Z,95845.78
2022-10-29T21:30:02.518Z,95838.56
2022-10-29T21:32:29.964Z,95841.50
2022-10-29T21:34:56.882Z,95830.44
2022-10-29T21:37:23.602Z,95825.53
2022-10-29T21:39:50.310Z,95818.56
2022-10-29T21:42:17.324Z,95824.72
2022-10-29T21:44:44.009Z,95820.66
2022-10-29T21:47:11.059Z,95823.56
2022-10-29T21:49:37.790Z,95824.06
2022-10-29T21:52:04.600Z,95829.88
2022-10-29T21:54:31.481Z,95825.13
2022-10-29T21:56:58.439Z,95830.34
2022-10-29T21:59:25.268Z,95827.81
2022-10-29T22:01:52.090Z,95825.38
2022-10-29T22:04:19.056Z,95825.84
2022-10-29T22:06:45.938Z,95821.78
2022-10-29T22:09:12.683Z,95821.66
2022-10-29T22:11:39.557Z,95827.28
2022-10-29T22:14:06.205Z,95822.97
2022-10-29T22:16:33.256Z,95821.34
2022-10-29T22:18:59.966Z,95814.34
2022-10-29T22:21:27.153Z,95817.03
2022-10-29T22:23:57.342Z,95820.41
2022-10-29T22:26:28.067Z,95818.69
2022-10-29T22:28:55.011Z,95812.03
2022-10-29T22:31:22.916Z,95813.78
2022-10-29T22:33:49.657Z,95812.16
2022-10-29T22:36:17.601Z,95810.75
2022-10-29T22:38:44.865Z,95807.50
2022-10-29T22:41:12.839Z,95807.50
2022-10-29T22:43:40.059Z,95809.59
2022-10-29T22:46:07.608Z,95820.53
2022-10-29T22:48:35.002Z,95815.44
2022-10-29T22:51:12.251Z,95806.81
2022-10-29T22:53:39.045Z,95806.00
2022-10-29T22:56:06.107Z,95810.19
2022-10-29T22:58:32.936Z,95814.97
2022-10-29T23:01:06.943Z,95813.22
2022-10-29T23:03:34.426Z,95821.72
2022-10-29T23:06:02.278Z,95820.44
2022-10-29T23:08:29.217Z,95815.09
2022-10-29T23:10:56.016Z,95812.88
2022-10-29T23:13:22.954Z,95812.28
2022-10-29T23:15:50.501Z,95802.63
2022-10-29T23:18:17.949Z,95812.28
2022-10-29T23:20:44.993Z,95814.97
2022-10-29T23:23:12.509Z,95818.56
2022-10-29T23:25:42.381Z,95821.47
2022-10-29T23:28:09.545Z,95820.06
2022-10-29T23:30:36.438Z,95812.25
2022-10-29T23:33:03.232Z,95812.03
2022-10-29T23:35:29.969Z,95814.00
2022-10-29T23:37:57.133Z,95803.53
2022-10-29T23:40:24.037Z,95803.19
2022-10-29T23:42:50.910Z,95797.03
2022-10-29T23:45:17.668Z,95804.94
2022-10-29T23:47:44.501Z,95799.22
2022-10-29T23:50:11.201Z,95796.53
2022-10-29T23:52:38.198Z,95792.50
2022-10-29T23:55:05.257Z,95795.84
2022-10-29T23:57:31.917Z,95787.84
2022-10-29T23:59:58.827Z,95790.75
